sensor_id;sensor_type;location;lat;lon;timestamp;P1;durP1;ratioP1;P2;durP2;ratioP2
9459;SDS011;4768;42.664;23.240;2023-06-10T00:01:50;2.73;;;2.53;;
9459;SDS011;4768;42.664;23.240;2023-06-10T00:04:20;4.43;;;2.87;;
9459;SDS011;4768;42.664;23.240;2023-06-10T00:06:47;3.17;;;2.83;;
9459;SDS011;4768;42.664;23.240;2023-06-10T00:09:14;4.57;;;3.17;;
9459;SDS011;4768;42.664;23.240;2023-06-10T00:11:41;5.30;;;3.70;;
9459;SDS011;4768;42.664;23.240;2023-06-10T00:14:10;3.97;;;3.33;;
9459;SDS011;4768;42.664;23.240;2023-06-10T00:16:36;3.47;;;3.10;;
9459;SDS011;4768;42.664;23.240;2023-06-10T00:19:03;3.20;;;2.90;;
9459;SDS011;4768;42.664;23.240;2023-06-10T00:21:31;3.67;;;2.93;;
9459;SDS011;4768;42.664;23.240;2023-06-10T00:24:02;4.30;;;3.40;;
9459;SDS011;4768;42.664;23.240;2023-06-10T00:26:30;4.27;;;3.37;;
9459;SDS011;4768;42.664;23.240;2023-06-10T00:28:57;4.23;;;3.33;;
9459;SDS011;4768;42.664;23.240;2023-06-10T00:31:25;5.23;;;3.33;;
9459;SDS011;4768;42.664;23.240;2023-06-10T00:33:52;3.50;;;3.20;;
9459;SDS011;4768;42.664;23.240;2023-06-10T00:36:19;4.43;;;3.77;;
9459;SDS011;4768;42.664;23.240;2023-06-10T00:38:47;4.87;;;3.47;;
9459;SDS011;4768;42.664;23.240;2023-06-10T00:41:14;4.90;;;3.97;;
9459;SDS011;4768;42.664;23.240;2023-06-10T00:43:40;5.97;;;3.87;;
9459;SDS011;4768;42.664;23.240;2023-06-10T00:46:07;5.77;;;3.93;;
9459;SDS011;4768;42.664;23.240;2023-06-10T00:48:35;4.10;;;3.50;;
9459;SDS011;4768;42.664;23.240;2023-06-10T00:51:03;5.83;;;3.90;;
9459;SDS011;4768;42.664;23.240;2023-06-10T00:53:34;5.00;;;4.10;;
9459;SDS011;4768;42.664;23.240;2023-06-10T00:56:03;5.70;;;3.47;;
9459;SDS011;4768;42.664;23.240;2023-06-10T00:58:30;4.07;;;3.40;;
9459;SDS011;4768;42.664;23.240;2023-06-10T01:00:57;4.93;;;3.30;;
9459;SDS011;4768;42.664;23.240;2023-06-10T01:03:24;4.60;;;3.37;;
9459;SDS011;4768;42.664;23.240;2023-06-10T01:05:53;5.13;;;3.70;;
9459;SDS011;4768;42.664;23.240;2023-06-10T01:08:31;3.87;;;3.43;;
9459;SDS011;4768;42.664;23.240;2023-06-10T01:11:07;3.97;;;3.50;;
9459;SDS011;4768;42.664;23.240;2023-06-10T01:13:38;5.40;;;3.40;;
9459;SDS011;4768;42.664;23.240;2023-06-10T01:16:07;3.77;;;3.17;;
9459;SDS011;4768;42.664;23.240;2023-06-10T01:18:35;4.73;;;3.50;;
9459;SDS011;4768;42.664;23.240;2023-06-10T01:21:05;5.90;;;3.57;;
9459;SDS011;4768;42.664;23.240;2023-06-10T01:23:34;4.97;;;3.83;;
9459;SDS011;4768;42.664;23.240;2023-06-10T01:26:02;4.33;;;3.70;;
9459;SDS011;4768;42.664;23.240;2023-06-10T01:28:33;5.63;;;3.40;;
9459;SDS011;4768;42.664;23.240;2023-06-10T01:31:08;3.47;;;3.17;;
9459;SDS011;4768;42.664;23.240;2023-06-10T01:33:38;3.50;;;3.20;;
9459;SDS011;4768;42.664;23.240;2023-06-10T01:36:05;3.13;;;2.83;;
9459;SDS011;4768;42.664;23.240;2023-06-10T01:38:36;3.20;;;2.90;;
9459;SDS011;4768;42.664;23.240;2023-06-10T01:41:06;5.50;;;3.60;;
9459;SDS011;4768;42.664;23.240;2023-06-10T01:43:34;3.17;;;2.87;;
9459;SDS011;4768;42.664;23.240;2023-06-10T01:46:03;3.80;;;3.13;;
9459;SDS011;4768;42.664;23.240;2023-06-10T01:48:30;3.17;;;2.87;;
9459;SDS011;4768;42.664;23.240;2023-06-10T01:50:57;4.03;;;3.10;;
9459;SDS011;4768;42.664;23.240;2023-06-10T01:53:23;3.03;;;2.67;;
9459;SDS011;4768;42.664;23.240;2023-06-10T01:55:52;6.47;;;3.10;;
9459;SDS011;4768;42.664;23.240;2023-06-10T01:58:18;3.53;;;2.90;;
9459;SDS011;4768;42.664;23.240;2023-06-10T02:00:45;4.43;;;3.43;;
9459;SDS011;4768;42.664;23.240;2023-06-10T02:03:12;4.23;;;3.20;;
9459;SDS011;4768;42.664;23.240;2023-06-10T02:05:38;4.30;;;2.97;;
9459;SDS011;4768;42.664;23.240;2023-06-10T02:08:05;3.17;;;2.87;;
9459;SDS011;4768;42.664;23.240;2023-06-10T02:10:32;4.03;;;2.53;;
9459;SDS011;4768;42.664;23.240;2023-06-10T02:13:00;4.43;;;2.83;;
9459;SDS011;4768;42.664;23.240;2023-06-10T02:15:27;3.60;;;3.20;;
9459;SDS011;4768;42.664;23.240;2023-06-10T02:17:53;3.27;;;2.70;;
9459;SDS011;4768;42.664;23.240;2023-06-10T02:20:21;3.43;;;2.93;;
9459;SDS011;4768;42.664;23.240;2023-06-10T02:22:47;4.00;;;2.90;;
9459;SDS011;4768;42.664;23.240;2023-06-10T02:25:14;4.83;;;2.87;;
9459;SDS011;4768;42.664;23.240;2023-06-10T02:27:41;3.10;;;2.80;;
9459;SDS011;4768;42.664;23.240;2023-06-10T02:30:10;3.37;;;3.00;;
9459;SDS011;4768;42.664;23.240;2023-06-10T02:32:37;3.33;;;2.73;;
9459;SDS011;4768;42.664;23.240;2023-06-10T02:35:04;3.30;;;3.00;;
9459;SDS011;4768;42.664;23.240;2023-06-10T02:37:32;3.53;;;2.90;;
9459;SDS011;4768;42.664;23.240;2023-06-10T02:39:58;3.50;;;3.00;;
9459;SDS011;4768;42.664;23.240;2023-06-10T02:42:25;3.50;;;3.07;;
9459;SDS011;4768;42.664;23.240;2023-06-10T02:44:52;4.50;;;3.20;;
9459;SDS011;4768;42.664;23.240;2023-06-10T02:47:20;5.47;;;2.80;;
9459;SDS011;4768;42.664;23.240;2023-06-10T02:49:46;5.63;;;3.20;;
9459;SDS011;4768;42.664;23.240;2023-06-10T02:52:13;5.73;;;2.97;;
9459;SDS011;4768;42.664;23.240;2023-06-10T02:54:40;4.30;;;3.00;;
9459;SDS011;4768;42.664;23.240;2023-06-10T02:57:07;4.33;;;3.17;;
9459;SDS011;4768;42.664;23.240;2023-06-10T02:59:35;5.33;;;3.00;;
9459;SDS011;4768;42.664;23.240;2023-06-10T03:02:01;7.97;;;3.10;;
9459;SDS011;4768;42.664;23.240;2023-06-10T03:04:30;4.80;;;3.10;;
9459;SDS011;4768;42.664;23.240;2023-06-10T03:06:57;3.90;;;2.77;;
9459;SDS011;4768;42.664;23.240;2023-06-10T03:09:25;3.47;;;2.37;;
9459;SDS011;4768;42.664;23.240;2023-06-10T03:11:52;3.93;;;2.43;;
9459;SDS011;4768;42.664;23.240;2023-06-10T03:14:18;3.40;;;2.43;;
9459;SDS011;4768;42.664;23.240;2023-06-10T03:16:45;3.57;;;2.40;;
9459;SDS011;4768;42.664;23.240;2023-06-10T03:19:12;2.73;;;2.47;;
9459;SDS011;4768;42.664;23.240;2023-06-10T03:21:43;3.67;;;2.43;;
9459;SDS011;4768;42.664;23.240;2023-06-10T03:24:11;3.57;;;2.60;;
9459;SDS011;4768;42.664;23.240;2023-06-10T03:26:37;3.00;;;2.57;;
9459;SDS011;4768;42.664;23.240;2023-06-10T03:29:04;3.87;;;3.40;;
9459;SDS011;4768;42.664;23.240;2023-06-10T03:31:31;4.60;;;3.50;;
9459;SDS011;4768;42.664;23.240;2023-06-10T03:33:57;4.27;;;3.33;;
9459;SDS011;4768;42.664;23.240;2023-06-10T03:36:24;3.67;;;3.23;;
9459;SDS011;4768;42.664;23.240;2023-06-10T03:38:55;3.43;;;2.97;;
9459;SDS011;4768;42.664;23.240;2023-06-10T03:41:21;4.17;;;3.27;;
9459;SDS011;4768;42.664;23.240;2023-06-10T03:43:48;3.97;;;2.90;;
9459;SDS011;4768;42.664;23.240;2023-06-10T03:46:15;3.73;;;3.23;;
9459;SDS011;4768;42.664;23.240;2023-06-10T03:48:42;4.47;;;3.27;;
9459;SDS011;4768;42.664;23.240;2023-06-10T03:51:09;4.30;;;3.13;;
9459;SDS011;4768;42.664;23.240;2023-06-10T03:53:36;4.57;;;3.37;;
9459;SDS011;4768;42.664;23.240;2023-06-10T03:56:04;4.50;;;3.20;;
9459;SDS011;4768;42.664;23.240;2023-06-10T03:58:31;5.13;;;3.77;;
9459;SDS011;4768;42.664;23.240;2023-06-10T04:00:57;3.33;;;3.03;;
9459;SDS011;4768;42.664;23.240;2023-06-10T04:03:25;3.07;;;2.50;;
9459;SDS011;4768;42.664;23.240;2023-06-10T04:05:52;3.67;;;2.77;;
9459;SDS011;4768;42.664;23.240;2023-06-10T04:08:19;3.63;;;3.00;;
9459;SDS011;4768;42.664;23.240;2023-06-10T04:10:47;4.03;;;2.67;;
9459;SDS011;4768;42.664;23.240;2023-06-10T04:13:15;4.83;;;3.20;;
9459;SDS011;4768;42.664;23.240;2023-06-10T04:15:42;3.10;;;2.70;;
9459;SDS011;4768;42.664;23.240;2023-06-10T04:18:08;4.20;;;3.37;;
9459;SDS011;4768;42.664;23.240;2023-06-10T04:20:35;3.43;;;3.13;;
9459;SDS011;4768;42.664;23.240;2023-06-10T04:23:02;4.13;;;2.67;;
9459;SDS011;4768;42.664;23.240;2023-06-10T04:25:29;4.50;;;2.70;;
9459;SDS011;4768;42.664;23.240;2023-06-10T04:27:56;4.37;;;2.90;;
9459;SDS011;4768;42.664;23.240;2023-06-10T04:30:24;3.27;;;2.73;;
9459;SDS011;4768;42.664;23.240;2023-06-10T04:32:51;4.23;;;3.43;;
9459;SDS011;4768;42.664;23.240;2023-06-10T04:35:18;4.63;;;3.67;;
9459;SDS011;4768;42.664;23.240;2023-06-10T04:37:45;4.97;;;4.13;;
9459;SDS011;4768;42.664;23.240;2023-06-10T04:40:11;5.67;;;4.07;;
9459;SDS011;4768;42.664;23.240;2023-06-10T04:42:38;5.13;;;3.40;;
9459;SDS011;4768;42.664;23.240;2023-06-10T04:45:06;5.23;;;3.97;;
9459;SDS011;4768;42.664;23.240;2023-06-10T04:47:35;4.03;;;3.63;;
9459;SDS011;4768;42.664;23.240;2023-06-10T04:50:02;4.33;;;3.70;;
9459;SDS011;4768;42.664;23.240;2023-06-10T04:52:29;5.10;;;3.63;;
9459;SDS011;4768;42.664;23.240;2023-06-10T04:54:57;4.73;;;3.97;;
9459;SDS011;4768;42.664;23.240;2023-06-10T04:57:24;3.70;;;3.40;;
9459;SDS011;4768;42.664;23.240;2023-06-10T04:59:51;6.07;;;4.37;;
9459;SDS011;4768;42.664;23.240;2023-06-10T05:02:18;4.53;;;3.43;;
9459;SDS011;4768;42.664;23.240;2023-06-10T05:04:46;4.67;;;3.70;;
9459;SDS011;4768;42.664;23.240;2023-06-10T05:07:13;6.33;;;3.73;;
9459;SDS011;4768;42.664;23.240;2023-06-10T05:09:40;5.47;;;3.60;;
9459;SDS011;4768;42.664;23.240;2023-06-10T05:12:07;6.03;;;3.93;;
9459;SDS011;4768;42.664;23.240;2023-06-10T05:14:34;6.67;;;4.73;;
9459;SDS011;4768;42.664;23.240;2023-06-10T05:17:01;4.90;;;3.90;;
9459;SDS011;4768;42.664;23.240;2023-06-10T05:19:27;6.73;;;4.33;;
9459;SDS011;4768;42.664;23.240;2023-06-10T05:21:56;5.00;;;4.50;;
9459;SDS011;4768;42.664;23.240;2023-06-10T05:24:22;6.13;;;5.10;;
9459;SDS011;4768;42.664;23.240;2023-06-10T05:26:49;7.07;;;5.80;;
9459;SDS011;4768;42.664;23.240;2023-06-10T05:29:16;6.40;;;5.23;;
9459;SDS011;4768;42.664;23.240;2023-06-10T05:31:43;10.03;;;4.83;;
9459;SDS011;4768;42.664;23.240;2023-06-10T05:34:09;4.83;;;4.33;;
9459;SDS011;4768;42.664;23.240;2023-06-10T05:36:36;7.23;;;4.13;;
9459;SDS011;4768;42.664;23.240;2023-06-10T05:39:04;9.77;;;4.47;;
9459;SDS011;4768;42.664;23.240;2023-06-10T05:41:31;5.23;;;4.07;;
9459;SDS011;4768;42.664;23.240;2023-06-10T05:43:57;5.47;;;3.90;;
9459;SDS011;4768;42.664;23.240;2023-06-10T05:46:24;4.67;;;4.20;;
9459;SDS011;4768;42.664;23.240;2023-06-10T05:48:51;6.17;;;3.87;;
9459;SDS011;4768;42.664;23.240;2023-06-10T05:51:18;4.23;;;3.83;;
9459;SDS011;4768;42.664;23.240;2023-06-10T05:53:44;6.37;;;4.37;;
9459;SDS011;4768;42.664;23.240;2023-06-10T05:56:13;6.43;;;4.97;;
9459;SDS011;4768;42.664;23.240;2023-06-10T05:58:40;5.90;;;4.70;;
9459;SDS011;4768;42.664;23.240;2023-06-10T06:01:07;5.20;;;4.70;;
9459;SDS011;4768;42.664;23.240;2023-06-10T06:03:33;5.00;;;4.10;;
9459;SDS011;4768;42.664;23.240;2023-06-10T06:06:00;6.73;;;4.30;;
9459;SDS011;4768;42.664;23.240;2023-06-10T06:08:27;5.13;;;4.03;;
9459;SDS011;4768;42.664;23.240;2023-06-10T06:10:54;5.40;;;3.73;;
9459;SDS011;4768;42.664;23.240;2023-06-10T06:13:22;4.30;;;3.63;;
9459;SDS011;4768;42.664;23.240;2023-06-10T06:15:49;5.83;;;4.17;;
9459;SDS011;4768;42.664;23.240;2023-06-10T06:18:16;6.53;;;4.27;;
9459;SDS011;4768;42.664;23.240;2023-06-10T06:20:43;4.40;;;3.70;;
9459;SDS011;4768;42.664;23.240;2023-06-10T06:23:10;4.43;;;3.40;;
9459;SDS011;4768;42.664;23.240;2023-06-10T06:25:37;6.20;;;3.97;;
9459;SDS011;4768;42.664;23.240;2023-06-10T06:28:04;6.60;;;3.43;;
9459;SDS011;4768;42.664;23.240;2023-06-10T06:30:33;4.87;;;3.43;;
9459;SDS011;4768;42.664;23.240;2023-06-10T06:32:59;3.53;;;2.70;;
9459;SDS011;4768;42.664;23.240;2023-06-10T06:35:26;4.90;;;3.20;;
9459;SDS011;4768;42.664;23.240;2023-06-10T06:37:52;2.80;;;2.53;;
9459;SDS011;4768;42.664;23.240;2023-06-10T06:40:19;3.33;;;2.80;;
9459;SDS011;4768;42.664;23.240;2023-06-10T06:42:46;5.27;;;2.73;;
9459;SDS011;4768;42.664;23.240;2023-06-10T06:45:12;5.60;;;3.10;;
9459;SDS011;4768;42.664;23.240;2023-06-10T06:47:41;2.97;;;2.67;;
9459;SDS011;4768;42.664;23.240;2023-06-10T06:50:08;2.90;;;2.57;;
9459;SDS011;4768;42.664;23.240;2023-06-10T06:52:35;3.40;;;2.90;;
9459;SDS011;4768;42.664;23.240;2023-06-10T06:55:02;2.93;;;2.63;;
9459;SDS011;4768;42.664;23.240;2023-06-10T06:57:29;3.50;;;3.17;;
9459;SDS011;4768;42.664;23.240;2023-06-10T06:59:56;2.60;;;2.23;;
9459;SDS011;4768;42.664;23.240;2023-06-10T07:02:23;3.93;;;2.77;;
9459;SDS011;4768;42.664;23.240;2023-06-10T07:04:51;2.77;;;2.57;;
9459;SDS011;4768;42.664;23.240;2023-06-10T07:07:20;3.40;;;2.30;;
9459;SDS011;4768;42.664;23.240;2023-06-10T07:09:47;2.83;;;2.30;;
9459;SDS011;4768;42.664;23.240;2023-06-10T07:12:13;4.97;;;1.87;;
9459;SDS011;4768;42.664;23.240;2023-06-10T07:14:40;2.07;;;1.93;;
9459;SDS011;4768;42.664;23.240;2023-06-10T07:17:07;2.40;;;2.20;;
9459;SDS011;4768;42.664;23.240;2023-06-10T07:19:34;3.17;;;2.43;;
9459;SDS011;4768;42.664;23.240;2023-06-10T07:22:02;3.45;;;2.67;;
9459;SDS011;4768;42.664;23.240;2023-06-10T07:24:29;4.63;;;2.27;;
9459;SDS011;4768;42.664;23.240;2023-06-10T07:26:56;2.67;;;2.47;;
9459;SDS011;4768;42.664;23.240;2023-06-10T07:29:23;2.77;;;2.47;;
9459;SDS011;4768;42.664;23.240;2023-06-10T07:31:49;4.32;;;2.75;;
9459;SDS011;4768;42.664;23.240;2023-06-10T07:34:16;2.80;;;2.30;;
9459;SDS011;4768;42.664;23.240;2023-06-10T07:36:43;3.17;;;2.50;;
9459;SDS011;4768;42.664;23.240;2023-06-10T07:39:11;5.07;;;2.40;;
9459;SDS011;4768;42.664;23.240;2023-06-10T07:41:37;3.33;;;2.90;;
9459;SDS011;4768;42.664;23.240;2023-06-10T07:44:04;2.17;;;1.98;;
9459;SDS011;4768;42.664;23.240;2023-06-10T07:46:31;3.25;;;2.60;;
9459;SDS011;4768;42.664;23.240;2023-06-10T07:48:57;3.50;;;2.80;;
9459;SDS011;4768;42.664;23.240;2023-06-10T07:51:24;4.88;;;2.80;;
9459;SDS011;4768;42.664;23.240;2023-06-10T07:53:51;2.33;;;2.13;;
9459;SDS011;4768;42.664;23.240;2023-06-10T07:56:19;2.17;;;1.98;;
9459;SDS011;4768;42.664;23.240;2023-06-10T07:58:46;3.50;;;2.28;;
9459;SDS011;4768;42.664;23.240;2023-06-10T08:01:13;2.65;;;2.20;;
9459;SDS011;4768;42.664;23.240;2023-06-10T08:03:40;2.08;;;1.42;;
9459;SDS011;4768;42.664;23.240;2023-06-10T08:06:06;1.73;;;1.63;;
9459;SDS011;4768;42.664;23.240;2023-06-10T08:08:33;2.70;;;2.22;;
9459;SDS011;4768;42.664;23.240;2023-06-10T08:11:05;2.60;;;2.20;;
9459;SDS011;4768;42.664;23.240;2023-06-10T08:13:33;2.20;;;1.98;;
9459;SDS011;4768;42.664;23.240;2023-06-10T08:16:00;2.33;;;2.13;;
9459;SDS011;4768;42.664;23.240;2023-06-10T08:18:26;2.28;;;2.08;;
9459;SDS011;4768;42.664;23.240;2023-06-10T08:20:53;2.72;;;2.30;;
9459;SDS011;4768;42.664;23.240;2023-06-10T08:23:20;2.33;;;1.73;;
9459;SDS011;4768;42.664;23.240;2023-06-10T08:25:47;2.05;;;1.85;;
9459;SDS011;4768;42.664;23.240;2023-06-10T08:28:14;2.78;;;2.10;;
9459;SDS011;4768;42.664;23.240;2023-06-10T08:30:42;1.80;;;1.70;;
9459;SDS011;4768;42.664;23.240;2023-06-10T08:33:09;1.83;;;1.73;;
9459;SDS011;4768;42.664;23.240;2023-06-10T08:35:36;2.10;;;1.90;;
9459;SDS011;4768;42.664;23.240;2023-06-10T08:38:02;2.30;;;2.10;;
9459;SDS011;4768;42.664;23.240;2023-06-10T08:40:29;1.90;;;1.80;;
9459;SDS011;4768;42.664;23.240;2023-06-10T08:42:59;2.20;;;2.00;;
9459;SDS011;4768;42.664;23.240;2023-06-10T08:45:31;2.45;;;2.25;;
9459;SDS011;4768;42.664;23.240;2023-06-10T08:48:02;2.58;;;2.00;;
9459;SDS011;4768;42.664;23.240;2023-06-10T08:50:31;2.03;;;1.83;;
9459;SDS011;4768;42.664;23.240;2023-06-10T08:53:00;4.47;;;1.92;;
9459;SDS011;4768;42.664;23.240;2023-06-10T08:55:29;3.28;;;2.20;;
9459;SDS011;4768;42.664;23.240;2023-06-10T08:57:56;3.20;;;2.00;;
9459;SDS011;4768;42.664;23.240;2023-06-10T09:00:23;2.38;;;2.17;;
9459;SDS011;4768;42.664;23.240;2023-06-10T09:02:52;2.17;;;1.98;;
9459;SDS011;4768;42.664;23.240;2023-06-10T09:05:20;3.95;;;2.40;;
9459;SDS011;4768;42.664;23.240;2023-06-10T09:07:47;4.30;;;2.10;;
9459;SDS011;4768;42.664;23.240;2023-06-10T09:10:14;9.25;;;2.67;;
9459;SDS011;4768;42.664;23.240;2023-06-10T09:12:41;2.75;;;2.47;;
9459;SDS011;4768;42.664;23.240;2023-06-10T09:15:08;2.97;;;2.50;;
9459;SDS011;4768;42.664;23.240;2023-06-10T09:17:37;3.22;;;2.10;;
9459;SDS011;4768;42.664;23.240;2023-06-10T09:20:06;2.60;;;2.35;;
9459;SDS011;4768;42.664;23.240;2023-06-10T09:22:34;3.72;;;2.20;;
9459;SDS011;4768;42.664;23.240;2023-06-10T09:25:03;3.88;;;3.00;;
9459;SDS011;4768;42.664;23.240;2023-06-10T09:27:33;3.85;;;2.75;;
9459;SDS011;4768;42.664;23.240;2023-06-10T09:30:23;2.85;;;2.20;;
9459;SDS011;4768;42.664;23.240;2023-06-10T09:32:51;5.18;;;2.50;;
9459;SDS011;4768;42.664;23.240;2023-06-10T09:35:19;3.88;;;2.17;;
9459;SDS011;4768;42.664;23.240;2023-06-10T09:37:48;2.85;;;2.22;;
9459;SDS011;4768;42.664;23.240;2023-06-10T09:40:17;2.58;;;2.03;;
9459;SDS011;4768;42.664;23.240;2023-06-10T09:42:44;2.35;;;2.08;;
9459;SDS011;4768;42.664;23.240;2023-06-10T09:45:14;2.70;;;2.22;;
9459;SDS011;4768;42.664;23.240;2023-06-10T09:47:41;2.40;;;2.20;;
9459;SDS011;4768;42.664;23.240;2023-06-10T09:50:08;1.52;;;1.40;;
9459;SDS011;4768;42.664;23.240;2023-06-10T09:52:36;1.70;;;1.60;;
9459;SDS011;4768;42.664;23.240;2023-06-10T09:55:07;2.42;;;1.70;;
9459;SDS011;4768;42.664;23.240;2023-06-10T09:57:36;3.60;;;2.05;;
9459;SDS011;4768;42.664;23.240;2023-06-10T10:00:04;2.60;;;2.40;;
9459;SDS011;4768;42.664;23.240;2023-06-10T10:02:33;2.22;;;2.03;;
9459;SDS011;4768;42.664;23.240;2023-06-10T10:05:10;2.28;;;2.08;;
9459;SDS011;4768;42.664;23.240;2023-06-10T10:07:39;4.40;;;2.22;;
9459;SDS011;4768;42.664;23.240;2023-06-10T10:10:07;5.72;;;2.17;;
9459;SDS011;4768;42.664;23.240;2023-06-10T10:12:35;3.05;;;2.75;;
9459;SDS011;4768;42.664;23.240;2023-06-10T10:15:02;3.05;;;2.75;;
9459;SDS011;4768;42.664;23.240;2023-06-10T10:17:33;2.55;;;2.35;;
9459;SDS011;4768;42.664;23.240;2023-06-10T10:20:01;2.47;;;2.10;;
9459;SDS011;4768;42.664;23.240;2023-06-10T10:22:31;2.75;;;2.53;;
9459;SDS011;4768;42.664;23.240;2023-06-10T10:25:05;2.78;;;2.53;;
9459;SDS011;4768;42.664;23.240;2023-06-10T10:27:39;2.80;;;2.50;;
9459;SDS011;4768;42.664;23.240;2023-06-10T10:30:11;3.67;;;2.90;;
9459;SDS011;4768;42.664;23.240;2023-06-10T10:32:38;4.22;;;2.80;;
9459;SDS011;4768;42.664;23.240;2023-06-10T10:35:07;4.50;;;2.60;;
9459;SDS011;4768;42.664;23.240;2023-06-10T10:37:35;3.20;;;2.90;;
9459;SDS011;4768;42.664;23.240;2023-06-10T10:40:02;3.05;;;2.80;;
9459;SDS011;4768;42.664;23.240;2023-06-10T10:42:31;3.90;;;2.80;;
9459;SDS011;4768;42.664;23.240;2023-06-10T10:44:59;2.72;;;2.40;;
9459;SDS011;4768;42.664;23.240;2023-06-10T10:47:26;2.28;;;2.17;;
9459;SDS011;4768;42.664;23.240;2023-06-10T10:49:55;2.80;;;2.20;;
9459;SDS011;4768;42.664;23.240;2023-06-10T10:52:24;3.10;;;2.13;;
9459;SDS011;4768;42.664;23.240;2023-06-10T10:54:52;2.50;;;2.30;;
9459;SDS011;4768;42.664;23.240;2023-06-10T10:57:20;3.13;;;2.10;;
9459;SDS011;4768;42.664;23.240;2023-06-10T10:59:54;2.25;;;2.13;;
9459;SDS011;4768;42.664;23.240;2023-06-10T11:02:34;2.50;;;2.17;;
9459;SDS011;4768;42.664;23.240;2023-06-10T11:05:04;2.75;;;2.10;;
9459;SDS011;4768;42.664;23.240;2023-06-10T11:07:31;3.20;;;2.45;;
9459;SDS011;4768;42.664;23.240;2023-06-10T11:09:59;2.70;;;2.03;;
9459;SDS011;4768;42.664;23.240;2023-06-10T11:12:33;2.13;;;1.60;;
9459;SDS011;4768;42.664;23.240;2023-06-10T11:15:08;2.03;;;1.90;;
9459;SDS011;4768;42.664;23.240;2023-06-10T11:17:36;2.92;;;2.63;;
9459;SDS011;4768;42.664;23.240;2023-06-10T11:20:03;2.85;;;1.70;;
9459;SDS011;4768;42.664;23.240;2023-06-10T11:22:30;2.25;;;2.05;;
9459;SDS011;4768;42.664;23.240;2023-06-10T11:24:57;1.88;;;1.77;;
9459;SDS011;4768;42.664;23.240;2023-06-10T11:27:24;1.90;;;1.80;;
9459;SDS011;4768;42.664;23.240;2023-06-10T11:29:57;2.17;;;1.98;;
9459;SDS011;4768;42.664;23.240;2023-06-10T11:32:29;2.55;;;2.17;;
9459;SDS011;4768;42.664;23.240;2023-06-10T11:34:56;3.38;;;2.55;;
9459;SDS011;4768;42.664;23.240;2023-06-10T11:37:24;2.90;;;2.00;;
9459;SDS011;4768;42.664;23.240;2023-06-10T11:39:54;2.67;;;1.92;;
9459;SDS011;4768;42.664;23.240;2023-06-10T11:42:21;2.25;;;1.73;;
9459;SDS011;4768;42.664;23.240;2023-06-10T11:44:48;2.30;;;2.10;;
9459;SDS011;4768;42.664;23.240;2023-06-10T11:47:16;2.60;;;2.40;;
9459;SDS011;4768;42.664;23.240;2023-06-10T11:49:44;2.40;;;2.20;;
9459;SDS011;4768;42.664;23.240;2023-06-10T11:52:10;2.05;;;1.92;;
9459;SDS011;4768;42.664;23.240;2023-06-10T11:54:37;3.22;;;2.17;;
9459;SDS011;4768;42.664;23.240;2023-06-10T11:57:04;2.92;;;2.05;;
9459;SDS011;4768;42.664;23.240;2023-06-10T11:59:33;9.48;;;4.55;;
9459;SDS011;4768;42.664;23.240;2023-06-10T12:02:00;3.25;;;2.70;;
9459;SDS011;4768;42.664;23.240;2023-06-10T12:04:27;4.95;;;3.28;;
9459;SDS011;4768;42.664;23.240;2023-06-10T12:06:55;4.10;;;2.35;;
9459;SDS011;4768;42.664;23.240;2023-06-10T12:09:22;2.55;;;2.30;;
9459;SDS011;4768;42.664;23.240;2023-06-10T12:11:50;3.20;;;2.50;;
9459;SDS011;4768;42.664;23.240;2023-06-10T12:16:58;2.83;;;2.17;;
9459;SDS011;4768;42.664;23.240;2023-06-10T12:19:25;3.03;;;2.70;;
9459;SDS011;4768;42.664;23.240;2023-06-10T12:21:52;3.13;;;2.70;;
9459;SDS011;4768;42.664;23.240;2023-06-10T12:24:20;2.45;;;2.25;;
9459;SDS011;4768;42.664;23.240;2023-06-10T12:26:47;2.72;;;2.50;;
9459;SDS011;4768;42.664;23.240;2023-06-10T12:29:20;6.15;;;4.07;;
9459;SDS011;4768;42.664;23.240;2023-06-10T12:31:55;3.05;;;2.53;;
9459;SDS011;4768;42.664;23.240;2023-06-10T12:34:30;2.95;;;2.30;;
9459;SDS011;4768;42.664;23.240;2023-06-10T12:36:58;2.63;;;2.17;;
9459;SDS011;4768;42.664;23.240;2023-06-10T12:39:26;3.38;;;2.33;;
9459;SDS011;4768;42.664;23.240;2023-06-10T12:41:53;2.78;;;2.38;;
9459;SDS011;4768;42.664;23.240;2023-06-10T12:44:28;1.95;;;1.75;;
9459;SDS011;4768;42.664;23.240;2023-06-10T12:46:58;2.47;;;2.28;;
9459;SDS011;4768;42.664;23.240;2023-06-10T12:49:25;2.55;;;2.33;;
9459;SDS011;4768;42.664;23.240;2023-06-10T12:51:52;2.78;;;1.90;;
9459;SDS011;4768;42.664;23.240;2023-06-10T12:54:20;2.20;;;2.00;;
9459;SDS011;4768;42.664;23.240;2023-06-10T12:56:48;2.50;;;2.30;;
9459;SDS011;4768;42.664;23.240;2023-06-10T12:59:15;2.95;;;2.22;;
9459;SDS011;4768;42.664;23.240;2023-06-10T13:01:42;2.90;;;2.05;;
9459;SDS011;4768;42.664;23.240;2023-06-10T13:04:08;2.85;;;2.40;;
9459;SDS011;4768;42.664;23.240;2023-06-10T13:06:35;2.30;;;2.10;;
9459;SDS011;4768;42.664;23.240;2023-06-10T13:09:03;2.72;;;2.20;;
9459;SDS011;4768;42.664;23.240;2023-06-10T13:11:32;2.25;;;2.05;;
9459;SDS011;4768;42.664;23.240;2023-06-10T13:14:01;2.13;;;2.00;;
9459;SDS011;4768;42.664;23.240;2023-06-10T13:16:30;2.42;;;2.03;;
9459;SDS011;4768;42.664;23.240;2023-06-10T13:18:57;2.60;;;2.10;;
9459;SDS011;4768;42.664;23.240;2023-06-10T13:21:23;3.38;;;2.13;;
9459;SDS011;4768;42.664;23.240;2023-06-10T13:23:50;5.10;;;2.08;;
9459;SDS011;4768;42.664;23.240;2023-06-10T13:26:17;3.33;;;1.70;;
9459;SDS011;4768;42.664;23.240;2023-06-10T13:28:44;4.30;;;2.00;;
9459;SDS011;4768;42.664;23.240;2023-06-10T13:31:12;2.37;;;2.00;;
9459;SDS011;4768;42.664;23.240;2023-06-10T13:33:39;2.70;;;2.25;;
9459;SDS011;4768;42.664;23.240;2023-06-10T13:36:05;2.63;;;1.93;;
9459;SDS011;4768;42.664;23.240;2023-06-10T13:38:32;2.97;;;2.43;;
9459;SDS011;4768;42.664;23.240;2023-06-10T13:40:59;3.33;;;2.70;;
9459;SDS011;4768;42.664;23.240;2023-06-10T13:43:26;3.10;;;2.60;;
9459;SDS011;4768;42.664;23.240;2023-06-10T13:45:54;2.00;;;1.87;;
9459;SDS011;4768;42.664;23.240;2023-06-10T13:48:22;2.30;;;1.87;;
9459;SDS011;4768;42.664;23.240;2023-06-10T13:50:49;2.67;;;2.00;;
9459;SDS011;4768;42.664;23.240;2023-06-10T13:53:16;2.10;;;1.87;;
9459;SDS011;4768;42.664;23.240;2023-06-10T13:55:42;7.00;;;2.20;;
9459;SDS011;4768;42.664;23.240;2023-06-10T13:58:09;2.17;;;1.90;;
9459;SDS011;4768;42.664;23.240;2023-06-10T14:00:36;3.13;;;2.53;;
9459;SDS011;4768;42.664;23.240;2023-06-10T14:03:03;2.47;;;1.93;;
9459;SDS011;4768;42.664;23.240;2023-06-10T14:05:31;4.37;;;2.27;;
9459;SDS011;4768;42.664;23.240;2023-06-10T14:07:58;2.30;;;1.93;;
9459;SDS011;4768;42.664;23.240;2023-06-10T14:10:25;3.03;;;2.40;;
9459;SDS011;4768;42.664;23.240;2023-06-10T14:12:51;2.37;;;2.17;;
9459;SDS011;4768;42.664;23.240;2023-06-10T14:15:18;4.57;;;2.17;;
9459;SDS011;4768;42.664;23.240;2023-06-10T14:17:45;3.00;;;2.30;;
9459;SDS011;4768;42.664;23.240;2023-06-10T14:20:12;2.40;;;2.10;;
9459;SDS011;4768;42.664;23.240;2023-06-10T14:22:40;4.33;;;2.57;;
9459;SDS011;4768;42.664;23.240;2023-06-10T14:25:07;3.67;;;2.50;;
9459;SDS011;4768;42.664;23.240;2023-06-10T14:27:34;3.00;;;2.67;;
9459;SDS011;4768;42.664;23.240;2023-06-10T14:30:01;3.10;;;2.30;;
9459;SDS011;4768;42.664;23.240;2023-06-10T14:32:29;2.93;;;2.07;;
9459;SDS011;4768;42.664;23.240;2023-06-10T14:34:56;2.90;;;2.03;;
9459;SDS011;4768;42.664;23.240;2023-06-10T14:37:23;3.97;;;1.80;;
9459;SDS011;4768;42.664;23.240;2023-06-10T14:39:51;2.20;;;1.90;;
9459;SDS011;4768;42.664;23.240;2023-06-10T14:42:17;3.70;;;2.33;;
9459;SDS011;4768;42.664;23.240;2023-06-10T14:44:45;2.83;;;2.10;;
9459;SDS011;4768;42.664;23.240;2023-06-10T14:47:11;2.17;;;1.97;;
9459;SDS011;4768;42.664;23.240;2023-06-10T14:49:38;5.13;;;1.97;;
9459;SDS011;4768;42.664;23.240;2023-06-10T14:52:07;2.00;;;1.80;;
9459;SDS011;4768;42.664;23.240;2023-06-10T14:54:34;3.07;;;1.77;;
9459;SDS011;4768;42.664;23.240;2023-06-10T14:57:02;7.57;;;2.30;;
9459;SDS011;4768;42.664;23.240;2023-06-10T14:59:30;2.27;;;1.97;;
9459;SDS011;4768;42.664;23.240;2023-06-10T15:01:57;1.48;;;1.38;;
9459;SDS011;4768;42.664;23.240;2023-06-10T15:04:25;1.73;;;1.63;;
9459;SDS011;4768;42.664;23.240;2023-06-10T15:06:53;4.32;;;2.20;;